Time;durP1;ratioP1;P1;durP2;ratioP2;P2;SDS_P1;SDS_P2;PMS_P1;PMS_P2;Temp;Humidity;BMP_temperature;BMP_pressure;BME280_temperature;BME280_humidity;BME280_pressure;Samples;Min_cycle;Max_cycle;Signal;HPM_P1;HPM_P2
2023/12/04 00:00:47;;;;;;;943.92;860.45;;;0.40;99.90;;;;;;6274475;22;20842;-83
2023/12/04 00:03:12;;;;;;;1041.28;935.40;;;-0.30;99.90;;;;;;6300090;22;20023;-83
2023/12/04 00:05:38;;;;;;;975.50;886.53;;;0.10;99.90;;;;;;6300546;22;20098;-83
2023/12/04 00:08:04;;;;;;;1106.47;987.08;;;0.20;99.90;;;;;;6300505;22;20447;-83
2023/12/04 00:10:29;;;;;;;1003.40;910.97;;;-0.30;99.90;;;;;;6299470;22;20122;-83
2023/12/04 00:12:55;;;;;;;1086.75;970.80;;;-0.30;99.90;;;;;;6273679;22;20375;-83
2023/12/04 00:15:21;;;;;;;1039.30;937.15;;;0.90;99.90;;;;;;6274358;22;20015;-83
2023/12/04 00:17:47;;;;;;;1025.60;925.55;;;0.80;99.90;;;;;;6300503;22;20065;-83
2023/12/04 00:20:12;;;;;;;1005.72;912.65;;;0.60;99.90;;;;;;6300660;22;20019;-83
2023/12/04 00:22:38;;;;;;;1078.43;966.00;;;-0.30;99.90;;;;;;6299487;22;20046;-83
2023/12/04 00:25:06;;;;;;;1032.88;932.85;;;0.10;99.90;;;;;;6275088;22;20019;-84
2023/12/04 00:27:32;;;;;;;1068.35;959.53;;;-0.30;99.90;;;;;;6299376;22;20055;-83
2023/12/04 00:29:57;;;;;;;1039.70;936.03;;;-0.30;99.90;;;;;;6300036;22;20015;-83
2023/12/04 00:32:24;;;;;;;989.40;897.85;;;-0.30;99.90;;;;;;6299874;22;20015;-83
2023/12/04 00:34:50;;;;;;;1089.60;975.50;;;0.40;99.90;;;;;;6300674;22;20059;-83
2023/12/04 00:37:15;;;;;;;970.95;885.00;;;0.60;99.90;;;;;;6299240;22;20038;-83
2023/12/04 00:39:41;;;;;;;1084.70;970.13;;;0.70;99.90;;;;;;6300439;22;20015;-83
2023/12/04 00:42:07;;;;;;;1004.15;910.80;;;0.80;99.90;;;;;;6300159;22;20007;-83
2023/12/04 00:44:32;;;;;;;1069.93;962.03;;;0.60;99.90;;;;;;6298625;22;20055;-83
2023/12/04 00:46:58;;;;;;;1091.50;974.83;;;0.40;99.90;;;;;;6300460;22;20015;-83
2023/12/04 00:49:24;;;;;;;1056.80;952.10;;;0.10;99.90;;;;;;6300156;22;20390;-83
2023/12/04 00:51:50;;;;;;;1030.45;934.40;;;0.20;99.90;;;;;;6299480;22;20019;-83
2023/12/04 00:54:15;;;;;;;1019.88;924.45;;;-0.20;99.90;;;;;;6303869;22;20451;-83
2023/12/04 00:56:41;;;;;;;1047.80;946.35;;;-0.10;99.90;;;;;;6304993;22;20068;-83
2023/12/04 00:59:09;;;;;;;1012.35;915.40;;;0.50;99.90;;;;;;6278006;22;20015;-83
2023/12/04 01:01:36;;;;;;;1019.20;922.63;;;0.30;99.90;;;;;;6304751;22;20023;-83
2023/12/04 01:04:02;;;;;;;987.58;896.05;;;-0.30;99.90;;;;;;6279789;22;20048;-83
2023/12/04 01:06:29;;;;;;;1051.68;947.40;;;-0.30;99.90;;;;;;6304208;22;20018;-83
2023/12/04 01:08:55;;;;;;;1052.10;946.92;;;0.50;99.90;;;;;;6333714;22;20023;-83
2023/12/04 01:11:21;;;;;;;1087.15;973.13;;;0.90;99.90;;;;;;6279932;22;20018;-83
2023/12/04 01:13:47;;;;;;;979.22;890.83;;;0.70;99.90;;;;;;6303388;22;20091;-83
2023/12/04 01:16:14;;;;;;;1061.85;952.70;;;0.20;99.90;;;;;;6333554;22;20701;-83
2023/12/04 01:18:41;;;;;;;1064.68;954.75;;;-0.30;99.90;;;;;;6303747;22;20021;-83
2023/12/04 01:21:09;;;;;;;1070.43;960.55;;;-0.30;99.90;;;;;;6306116;22;20046;-83
2023/12/04 01:23:35;;;;;;;1004.55;910.25;;;-0.30;99.90;;;;;;6304093;22;20140;-83
2023/12/04 01:26:02;;;;;;;977.78;891.08;;;0.90;99.90;;;;;;6278809;22;20023;-83
2023/12/04 01:28:28;;;;;;;1061.50;953.15;;;-0.30;99.90;;;;;;6304168;22;20511;-83
2023/12/04 01:30:54;;;;;;;966.67;880.58;;;0.20;99.90;;;;;;6304882;22;20050;-83
2023/12/04 01:33:19;;;;;;;978.58;890.83;;;-0.30;99.90;;;;;;6304476;22;20026;-83
2023/12/04 01:35:45;;;;;;;983.30;894.85;;;0.30;99.90;;;;;;6304906;22;20034;-83
2023/12/04 01:38:11;;;;;;;984.38;895.45;;;0.10;99.90;;;;;;6333681;22;20011;-83
2023/12/04 01:40:37;;;;;;;987.97;898.00;;;0.70;99.90;;;;;;6304329;22;20363;-83
2023/12/04 01:43:02;;;;;;;975.00;888.42;;;-0.10;99.90;;;;;;6303706;22;20347;-83
2023/12/04 01:45:28;;;;;;;1067.32;958.65;;;-0.10;99.90;;;;;;6305001;22;20019;-83
2023/12/04 01:47:54;;;;;;;1065.80;956.47;;;-0.20;99.90;;;;;;6303890;22;20011;-83
2023/12/04 01:50:20;;;;;;;1059.20;952.45;;;0.40;99.90;;;;;;6305338;22;20468;-83
2023/12/04 01:52:47;;;;;;;1030.70;935.20;;;0.80;99.90;;;;;;6304834;22;20382;-83
2023/12/04 01:55:14;;;;;;;1061.05;951.38;;;0.50;99.90;;;;;;6303778;22;20019;-83
2023/12/04 01:57:41;;;;;;;1036.38;934.45;;;0.60;99.90;;;;;;6303826;22;20023;-83
2023/12/04 02:00:12;;;;;;;1072.28;960.17;;;0.80;99.90;;;;;;6304838;22;20015;-83
2023/12/04 02:02:39;;;;;;;1046.80;941.90;;;-0.30;99.90;;;;;;6304167;22;20083;-83
2023/12/04 02:05:07;;;;;;;1048.45;945.35;;;0.60;99.90;;;;;;6304780;22;20015;-83
2023/12/04 02:07:34;;;;;;;1052.13;946.80;;;-0.30;99.90;;;;;;6304641;22;20025;-83
2023/12/04 02:09:59;;;;;;;969.15;883.42;;;0.10;99.90;;;;;;6303926;22;20019;-83
2023/12/04 02:12:25;;;;;;;997.67;905.95;;;-0.20;99.90;;;;;;6304668;22;20750;-83
2023/12/04 02:14:52;;;;;;;1079.18;967.15;;;0.50;99.90;;;;;;6303790;22;20097;-83
2023/12/04 02:17:19;;;;;;;995.17;905.00;;;0.70;99.90;;;;;;6304839;22;20011;-83
2023/12/04 02:19:44;;;;;;;1016.47;920.05;;;0.40;99.90;;;;;;6304864;22;20023;-83
2023/12/04 02:22:10;;;;;;;1021.53;924.42;;;0.80;99.90;;;;;;6303800;22;20010;-83
2023/12/04 02:24:36;;;;;;;1005.55;912.75;;;0.70;99.90;;;;;;6304761;22;20019;-83
2023/12/04 02:27:14;;;;;;;1069.03;959.10;;;0.10;99.90;;;;;;6304994;22;20011;-83
2023/12/04 02:29:47;;;;;;;974.65;886.03;;;-0.20;99.90;;;;;;6302894;22;20014;-83
2023/12/04 02:32:17;;;;;;;1011.15;916.95;;;-0.30;99.90;;;;;;6279439;22;20456;-83
2023/12/04 02:34:45;;;;;;;1050.35;945.05;;;0.30;99.90;;;;;;6304602;22;20030;-83
2023/12/04 02:37:12;;;;;;;1078.82;967.03;;;0.70;99.90;;;;;;6304132;22;20018;-83
2023/12/04 02:39:38;;;;;;;1023.00;927.28;;;0.10;99.90;;;;;;6305307;22;20037;-83
2023/12/04 02:42:04;;;;;;;968.90;882.03;;;1.00;99.90;;;;;;6304387;22;20022;-83
2023/12/04 02:44:29;;;;;;;1002.83;912.40;;;0.50;99.90;;;;;;6277387;22;20019;-82
2023/12/04 02:46:56;;;;;;;1009.35;914.83;;;0.90;99.90;;;;;;6305006;22;20015;-83
2023/12/04 02:49:21;;;;;;;1059.60;952.13;;;0.70;99.90;;;;;;6304995;22;20021;-84
2023/12/04 02:51:47;;;;;;;1054.80;948.90;;;0.30;99.90;;;;;;6304042;22;20011;-83
2023/12/04 02:54:13;;;;;;;1065.55;960.22;;;0.50;99.90;;;;;;6304956;22;20022;-83
2023/12/04 02:56:38;;;;;;;976.42;888.13;;;0.40;99.90;;;;;;6306021;22;20022;-83
2023/12/04 02:59:04;;;;;;;990.03;898.67;;;0.60;99.90;;;;;;6304400;22;20398;-83
2023/12/04 03:01:30;;;;;;;1022.85;925.92;;;0.50;99.90;;;;;;6306431;22;20015;-83
2023/12/04 03:03:55;;;;;;;986.38;897.67;;;-0.10;99.90;;;;;;6307321;22;20159;-84
2023/12/04 03:06:21;;;;;;;1054.78;954.25;;;0.70;99.90;;;;;;6305865;22;20090;-83
2023/12/04 03:08:47;;;;;;;975.60;887.47;;;-0.20;99.90;;;;;;6306870;22;20036;-83
2023/12/04 03:11:12;;;;;;;1056.43;950.63;;;0.40;99.90;;;;;;6306238;22;20015;-83
2023/12/04 03:13:38;;;;;;;986.25;897.22;;;-0.20;99.90;;;;;;6305745;22;20010;-83
2023/12/04 03:16:04;;;;;;;1033.00;932.35;;;0.40;99.90;;;;;;6307039;22;20098;-83
2023/12/04 03:18:30;;;;;;;999.42;907.90;;;-0.10;99.90;;;;;;6304977;22;20504;-83
2023/12/04 03:20:56;;;;;;;970.53;884.30;;;-0.20;99.90;;;;;;6335309;22;20018;-83
2023/12/04 03:23:21;;;;;;;980.05;891.25;;;0.40;99.90;;;;;;6306576;22;20552;-83
2023/12/04 03:25:47;;;;;;;997.88;908.03;;;0.60;99.90;;;;;;6306007;22;20320;-83
2023/12/04 03:28:15;;;;;;;966.38;881.38;;;1.10;99.90;;;;;;6305736;22;20015;-83
2023/12/04 03:30:43;;;;;;;999.88;908.30;;;0.90;99.90;;;;;;6306249;22;20025;-83
2023/12/04 03:33:09;;;;;;;1040.15;937.55;;;0.60;99.90;;;;;;6305629;22;20007;-83
2023/12/04 03:35:35;;;;;;;1010.85;918.67;;;0.60;99.90;;;;;;6305631;22;20320;-83
2023/12/04 03:38:00;;;;;;;987.58;898.25;;;-0.10;99.90;;;;;;6334482;22;20068;-83
2023/12/04 03:40:26;;;;;;;997.83;905.33;;;0.40;99.90;;;;;;6305120;22;20021;-83
2023/12/04 03:42:52;;;;;;;985.00;895.45;;;1.10;99.90;;;;;;6333265;22;20324;-83
2023/12/04 03:45:18;;;;;;;990.72;900.83;;;0.90;99.90;;;;;;6306772;22;20022;-83
2023/12/04 03:47:43;;;;;;;972.13;883.75;;;0.60;99.90;;;;;;6304382;22;20175;-83
2023/12/04 03:50:09;;;;;;;992.67;900.08;;;0.20;99.90;;;;;;6306721;22;20027;-83
2023/12/04 03:52:35;;;;;;;1040.03;936.53;;;0.90;99.90;;;;;;6279776;22;20145;-83
2023/12/04 03:55:00;;;;;;;1008.53;915.28;;;0.00;99.90;;;;;;6305490;22;20019;-83
2023/12/04 03:57:26;;;;;;;1026.45;928.28;;;0.80;99.90;;;;;;6305156;22;20046;-83
2023/12/04 03:59:52;;;;;;;993.35;903.97;;;0.20;99.90;;;;;;6305554;22;20026;-83
2023/12/04 04:02:17;;;;;;;1036.78;936.35;;;0.70;99.90;;;;;;6279633;22;20011;-83
2023/12/04 04:04:43;;;;;;;1012.63;919.53;;;0.50;99.90;;;;;;6306104;22;20086;-83
2023/12/04 04:07:09;;;;;;;997.33;906.65;;;0.90;99.90;;;;;;6305333;22;20023;-83
2023/12/04 04:09:34;;;;;;;1007.90;913.30;;;0.50;99.90;;;;;;6278895;22;20563;-83
2023/12/04 04:12:00;;;;;;;993.80;903.25;;;0.70;99.90;;;;;;6305106;22;20046;-84
2023/12/04 04:14:26;;;;;;;979.25;890.25;;;1.00;99.90;;;;;;6304449;22;20007;-84
2023/12/04 04:16:52;;;;;;;1043.22;941.95;;;0.00;99.90;;;;;;6280309;22;20019;-84
2023/12/04 04:19:17;;;;;;;1061.18;957.90;;;0.30;99.90;;;;;;6305708;22;20022;-84
2023/12/04 04:21:43;;;;;;;1050.40;946.80;;;1.00;99.90;;;;;;6305082;22;20021;-84
2023/12/04 04:24:09;;;;;;;1030.38;932.83;;;0.00;99.90;;;;;;6305554;22;20336;-84
2023/12/04 04:26:34;;;;;;;1001.58;909.58;;;0.20;99.90;;;;;;6305847;22;20015;-84
2023/12/04 04:29:00;;;;;;;1010.03;915.78;;;0.70;99.90;;;;;;6304342;22;20022;-84
2023/12/04 04:31:25;;;;;;;1028.40;931.13;;;0.50;99.90;;;;;;6305286;22;20050;-84
2023/12/04 04:33:51;;;;;;;977.50;890.03;;;0.00;99.90;;;;;;6306006;22;20018;-84
2023/12/04 04:36:17;;;;;;;972.60;885.90;;;0.60;99.90;;;;;;6304650;22;20026;-84
2023/12/04 04:38:43;;;;;;;1032.50;934.85;;;0.00;99.90;;;;;;6305652;22;20446;-84
2023/12/04 04:41:15;;;;;;;1018.45;920.80;;;1.10;99.90;;;;;;6305946;22;20092;-84
2023/12/04 04:43:42;;;;;;;1055.25;952.33;;;0.00;99.90;;;;;;6304013;22;20050;-84
2023/12/04 04:46:07;;;;;;;995.60;905.03;;;0.40;99.90;;;;;;6306053;22;20007;-84
2023/12/04 04:48:33;;;;;;;960.47;876.00;;;1.00;99.90;;;;;;6305077;22;20010;-84
2023/12/04 04:50:59;;;;;;;984.55;896.78;;;0.80;99.90;;;;;;6305045;22;20019;-85
2023/12/04 04:53:24;;;;;;;977.13;889.13;;;1.20;99.90;;;;;;6305309;22;20015;-84
2023/12/04 04:55:50;;;;;;;987.47;896.85;;;0.20;99.90;;;;;;6304964;22;20030;-84
2023/12/04 04:58:16;;;;;;;1002.15;908.55;;;0.40;99.90;;;;;;6303944;22;20019;-84
2023/12/04 05:00:43;;;;;;;1018.10;923.55;;;0.70;99.90;;;;;;6304914;22;20010;-84
2023/12/04 05:03:09;;;;;;;952.90;869.33;;;0.60;99.90;;;;;;6305861;22;20025;-84
2023/12/04 05:05:35;;;;;;;951.72;867.80;;;0.70;99.90;;;;;;6278018;22;20018;-84
2023/12/04 05:08:00;;;;;;;956.08;871.58;;;1.20;99.90;;;;;;6279971;22;20038;-84
2023/12/04 05:10:26;;;;;;;975.63;887.83;;;0.10;99.90;;;;;;6305140;22;20128;-84
2023/12/04 05:12:52;;;;;;;969.42;882.38;;;0.90;99.90;;;;;;6302962;22;20025;-85
2023/12/04 05:15:17;;;;;;;937.05;856.20;;;0.60;99.90;;;;;;6305610;22;20025;-84
2023/12/04 05:17:43;;;;;;;959.22;873.53;;;0.90;99.90;;;;;;6277659;22;20015;-84
2023/12/04 05:20:09;;;;;;;984.75;894.92;;;0.90;99.90;;;;;;6305475;22;20027;-84
2023/12/04 05:22:35;;;;;;;972.22;885.83;;;0.10;99.90;;;;;;6304304;22;20011;-84
2023/12/04 05:25:01;;;;;;;1006.90;914.53;;;0.90;99.90;;;;;;6304217;22;20011;-83
2023/12/04 05:27:27;;;;;;;954.33;870.75;;;1.20;99.90;;;;;;6278452;22;20160;-83
2023/12/04 05:29:52;;;;;;;954.85;870.70;;;0.40;99.90;;;;;;6332803;22;20465;-83
2023/12/04 05:32:18;;;;;;;942.28;860.50;;;0.80;99.90;;;;;;6304017;22;20568;-83
2023/12/04 05:34:44;;;;;;;952.25;870.03;;;0.70;99.90;;;;;;6305083;22;20089;-83
2023/12/04 05:37:09;;;;;;;920.15;840.35;;;1.00;99.90;;;;;;6305085;22;20026;-83
2023/12/04 05:39:35;;;;;;;933.65;852.95;;;0.10;99.90;;;;;;6304030;22;20019;-83
2023/12/04 05:42:01;;;;;;;913.25;836.28;;;0.40;99.90;;;;;;6304609;22;20064;-83
2023/12/04 05:44:26;;;;;;;923.10;842.45;;;0.70;99.90;;;;;;6304731;22;20046;-83
2023/12/04 05:46:52;;;;;;;901.97;825.85;;;0.80;99.90;;;;;;6304828;22;20063;-83
2023/12/04 05:49:18;;;;;;;906.63;831.53;;;1.10;99.90;;;;;;6304541;22;20017;-83
2023/12/04 05:51:43;;;;;;;925.38;845.25;;;0.10;99.90;;;;;;6305279;22;20019;-83
2023/12/04 05:54:09;;;;;;;890.53;816.75;;;0.00;99.90;;;;;;6303728;22;20094;-83
2023/12/04 05:56:35;;;;;;;859.80;789.20;;;0.60;99.90;;;;;;6304664;22;20102;-83
2023/12/04 05:59:01;;;;;;;905.28;828.75;;;1.20;99.90;;;;;;6304277;22;20097;-83
2023/12/04 06:01:27;;;;;;;909.63;833.35;;;0.10;99.90;;;;;;6304193;22;20018;-83
2023/12/04 06:03:53;;;;;;;945.00;862.50;;;0.60;99.90;;;;;;6305544;22;20025;-83
2023/12/04 06:06:19;;;;;;;911.13;834.53;;;1.20;99.90;;;;;;6279642;22;20050;-83
2023/12/04 06:08:44;;;;;;;902.92;826.97;;;0.10;99.90;;;;;;6303418;22;20026;-83
2023/12/04 06:11:10;;;;;;;878.50;806.00;;;0.90;99.90;;;;;;6305396;22;20030;-83
2023/12/04 06:13:36;;;;;;;915.67;837.30;;;0.40;99.90;;;;;;6277260;22;20374;-83
2023/12/04 06:16:02;;;;;;;922.65;843.17;;;0.50;99.90;;;;;;6304293;22;20098;-83
2023/12/04 06:18:27;;;;;;;916.80;838.80;;;0.00;99.90;;;;;;6304779;22;20011;-84
2023/12/04 06:20:53;;;;;;;897.95;823.08;;;0.40;99.90;;;;;;6332851;22;20481;-83
2023/12/04 06:23:19;;;;;;;897.70;822.70;;;0.20;99.90;;;;;;6304226;22;20524;-83
2023/12/04 06:25:45;;;;;;;895.83;821.80;;;0.00;99.90;;;;;;6278574;22;20090;-83
2023/12/04 06:28:11;;;;;;;947.25;866.50;;;0.10;99.90;;;;;;6303431;22;20026;-84
2023/12/04 06:30:37;;;;;;;930.25;850.90;;;0.00;99.90;;;;;;6279310;22;20018;-84
2023/12/04 06:33:03;;;;;;;957.05;873.58;;;0.10;99.90;;;;;;6306626;22;20054;-84
2023/12/04 06:35:29;;;;;;;905.15;827.28;;;0.10;99.90;;;;;;6306298;22;20440;-83
2023/12/04 06:37:55;;;;;;;871.17;800.35;;;0.00;99.90;;;;;;6334229;22;20030;-83
2023/12/04 06:40:22;;;;;;;905.17;829.97;;;0.10;99.90;;;;;;6307362;22;20454;-83
2023/12/04 06:42:48;;;;;;;892.22;817.13;;;0.00;99.90;;;;;;6278257;22;20015;-83
2023/12/04 06:45:14;;;;;;;887.55;812.38;;;0.00;99.90;;;;;;6307444;22;20284;-84
2023/12/04 06:47:43;;;;;;;887.33;813.88;;;0.00;99.90;;;;;;6334258;22;20340;-84
2023/12/04 06:50:09;;;;;;;887.00;813.08;;;0.00;99.90;;;;;;6305403;22;20015;-83
2023/12/04 06:52:34;;;;;;;866.03;794.42;;;0.40;99.90;;;;;;6279251;22;20030;-83
2023/12/04 06:55:00;;;;;;;873.67;801.75;;;0.40;99.90;;;;;;6305407;22;20011;-83
2023/12/04 06:57:26;;;;;;;906.65;830.25;;;0.00;99.90;;;;;;6304038;22;20022;-83
2023/12/04 06:59:52;;;;;;;890.85;817.65;;;0.90;99.90;;;;;;6305774;22;20011;-83
2023/12/04 07:02:18;;;;;;;921.30;842.00;;;0.80;99.90;;;;;;6305743;22;20014;-83
2023/12/04 07:04:43;;;;;;;863.35;793.30;;;0.10;99.90;;;;;;6304929;22;20316;-83
2023/12/04 07:07:09;;;;;;;920.55;842.05;;;1.00;99.90;;;;;;6279496;22;20015;-83
2023/12/04 07:09:35;;;;;;;916.13;839.10;;;1.00;99.90;;;;;;6305372;22;20015;-83
2023/12/04 07:12:02;;;;;;;887.35;813.88;;;0.50;99.90;;;;;;6304476;22;20414;-83
2023/12/04 07:14:28;;;;;;;862.70;792.38;;;0.00;99.90;;;;;;6278726;22;20048;-83
2023/12/04 07:16:53;;;;;;;857.08;786.90;;;-0.10;99.90;;;;;;6305810;22;20022;-82
2023/12/04 07:19:19;;;;;;;888.75;813.10;;;0.90;99.90;;;;;;6278461;22;20019;-83
2023/12/04 07:21:45;;;;;;;878.72;807.10;;;0.90;99.90;;;;;;6305928;22;20015;-83
2023/12/04 07:24:11;;;;;;;856.72;786.05;;;0.10;99.90;;;;;;6280015;22;20072;-84
2023/12/04 07:26:38;;;;;;;849.05;780.05;;;0.50;99.90;;;;;;6304142;22;20123;-84
2023/12/04 07:29:06;;;;;;;857.45;788.17;;;-0.10;99.90;;;;;;6304625;22;20067;-81
2023/12/04 07:31:32;;;;;;;833.00;766.10;;;-0.20;99.90;;;;;;6277940;22;20443;-81
2023/12/04 07:34:00;;;;;;;857.45;787.10;;;0.00;99.90;;;;;;6305671;22;20011;-82
2023/12/04 07:36:25;;;;;;;878.95;805.45;;;1.00;99.90;;;;;;6304595;22;20097;-82
2023/12/04 07:38:53;;;;;;;895.10;818.70;;;-0.20;99.90;;;;;;6304662;22;20046;-81
2023/12/04 07:41:19;;;;;;;883.65;811.30;;;0.80;99.90;;;;;;6304753;22;20071;-81
2023/12/04 07:43:45;;;;;;;840.53;772.80;;;0.70;99.90;;;;;;6303890;22;20045;-83
2023/12/04 07:46:11;;;;;;;847.90;779.05;;;0.90;99.90;;;;;;6304655;22;20019;-82
2023/12/04 07:48:37;;;;;;;843.47;775.80;;;0.80;99.90;;;;;;6304479;22;20062;-83
2023/12/04 07:51:04;;;;;;;839.83;772.05;;;0.60;99.90;;;;;;6305442;22;20050;-82
2023/12/04 07:53:29;;;;;;;877.95;804.47;;;-0.20;99.90;;;;;;6331778;22;20019;-83
2023/12/04 07:55:55;;;;;;;865.47;794.35;;;0.50;99.90;;;;;;6333515;22;20075;-83
2023/12/04 07:58:21;;;;;;;827.03;761.00;;;0.10;99.90;;;;;;6279328;22;20434;-83
2023/12/04 08:00:48;;;;;;;864.05;792.97;;;0.80;99.90;;;;;;6303904;22;20026;-83
2023/12/04 08:03:13;;;;;;;849.97;780.95;;;0.40;99.90;;;;;;6304946;22;20011;-84
2023/12/04 08:05:39;;;;;;;830.53;764.25;;;-0.10;99.90;;;;;;6278652;22;20015;-82
2023/12/04 08:08:05;;;;;;;864.95;793.42;;;0.00;99.90;;;;;;6303911;22;20023;-82
2023/12/04 08:10:31;;;;;;;854.90;784.67;;;-0.10;99.90;;;;;;6304798;22;20023;-82
2023/12/04 08:12:57;;;;;;;863.15;791.83;;;1.00;99.90;;;;;;6303533;22;20018;-82
2023/12/04 08:15:22;;;;;;;861.08;790.90;;;1.00;99.90;;;;;;6304219;22;20030;-82
2023/12/04 08:17:48;;;;;;;853.13;783.72;;;0.30;99.90;;;;;;6303806;22;20045;-82
2023/12/04 08:20:14;;;;;;;875.13;802.50;;;0.00;99.90;;;;;;6305692;22;20148;-82
2023/12/04 08:22:41;;;;;;;883.35;810.30;;;0.10;99.90;;;;;;6277714;22;20011;-83
2023/12/04 08:25:07;;;;;;;892.00;816.92;;;0.80;99.90;;;;;;6305081;22;20019;-82
2023/12/04 08:27:33;;;;;;;879.42;806.30;;;0.20;99.90;;;;;;6331247;22;20021;-82
2023/12/04 08:29:59;;;;;;;831.45;766.58;;;1.20;99.90;;;;;;6305064;22;20071;-81
2023/12/04 08:32:27;;;;;;;817.25;753.40;;;1.50;99.90;;;;;;6305135;22;20019;-81
2023/12/04 08:34:53;;;;;;;829.92;762.50;;;0.30;99.90;;;;;;6332174;22;20003;-81
2023/12/04 08:37:20;;;;;;;839.17;770.65;;;0.30;99.90;;;;;;6333066;22;20454;-81
2023/12/04 08:39:45;;;;;;;843.10;775.00;;;0.30;99.90;;;;;;6304506;22;20080;-81
2023/12/04 08:42:12;;;;;;;804.72;740.97;;;0.50;99.90;;;;;;6302803;22;20338;-81
2023/12/04 08:44:38;;;;;;;771.55;713.05;;;0.70;99.90;;;;;;6278001;22;20496;-81
2023/12/04 08:47:04;;;;;;;800.17;736.47;;;0.50;99.90;;;;;;6304717;22;20027;-81
2023/12/04 08:49:30;;;;;;;783.90;722.00;;;0.40;99.90;;;;;;6277312;22;20026;-81
2023/12/04 08:51:56;;;;;;;714.75;661.63;;;0.50;99.90;;;;;;6305021;22;20030;-81
2023/12/04 08:54:22;;;;;;;687.45;636.38;;;0.70;99.90;;;;;;6304728;22;20014;-82
2023/12/04 08:56:47;;;;;;;718.65;665.17;;;0.90;99.90;;;;;;6304380;22;20027;-81
2023/12/04 08:59:13;;;;;;;688.92;636.20;;;1.00;99.90;;;;;;6277999;22;20015;-81
2023/12/04 09:01:39;;;;;;;654.33;606.40;;;1.40;99.90;;;;;;6305124;22;20027;-82
2023/12/04 09:04:07;;;;;;;714.33;659.67;;;1.30;99.90;;;;;;6304489;22;20339;-82
2023/12/04 09:06:32;;;;;;;641.70;594.20;;;1.20;99.90;;;;;;6305207;22;20022;-81
2023/12/04 09:08:58;;;;;;;694.67;642.03;;;1.40;99.90;;;;;;6305351;22;20370;-81
2023/12/04 09:11:24;;;;;;;571.35;531.03;;;0.70;99.90;;;;;;6303821;22;20045;-82
2023/12/04 09:13:50;;;;;;;690.17;638.53;;;1.80;99.90;;;;;;6327645;22;20029;-81
2023/12/04 09:16:15;;;;;;;621.83;575.80;;;0.90;99.90;;;;;;6304769;22;20085;-81
2023/12/04 09:18:41;;;;;;;567.72;527.92;;;0.80;99.90;;;;;;6302203;22;20021;-81
2023/12/04 09:21:08;;;;;;;524.55;488.45;;;1.00;99.90;;;;;;6333611;22;20102;-82
2023/12/04 09:23:34;;;;;;;568.35;528.65;;;0.90;99.90;;;;;;6304383;22;20090;-82
2023/12/04 09:26:00;;;;;;;501.75;468.23;;;1.10;99.90;;;;;;6332324;22;20075;-84
2023/12/04 09:28:26;;;;;;;564.55;524.92;;;1.80;99.90;;;;;;6278035;22;20401;-83
2023/12/04 09:30:51;;;;;;;515.72;480.85;;;0.90;99.90;;;;;;6302992;22;20015;-82
2023/12/04 09:33:17;;;;;;;605.70;561.97;;;0.90;99.90;;;;;;6304289;22;20065;-83
2023/12/04 09:35:43;;;;;;;496.63;463.40;;;1.40;99.90;;;;;;6277892;22;20018;-83
2023/12/04 09:38:10;;;;;;;579.38;538.63;;;0.90;99.90;;;;;;6303543;22;20045;-83
2023/12/04 09:40:35;;;;;;;580.90;539.88;;;1.30;99.90;;;;;;6304045;22;20015;-82
2023/12/04 09:43:02;;;;;;;493.55;460.27;;;0.90;99.90;;;;;;6302857;22;20017;-82
2023/12/04 09:45:30;;;;;;;522.00;485.70;;;1.00;99.90;;;;;;6303232;22;20048;-82
2023/12/04 09:47:57;;;;;;;556.13;516.83;;;1.80;99.90;;;;;;6303845;22;20426;-83
2023/12/04 09:50:23;;;;;;;504.65;470.60;;;1.50;99.90;;;;;;6304444;22;20438;-82
2023/12/04 09:52:50;;;;;;;525.10;488.42;;;1.90;99.90;;;;;;6302956;22;20015;-82
2023/12/04 09:55:17;;;;;;;504.98;470.95;;;1.10;99.90;;;;;;6273269;22;20019;-82
2023/12/04 09:57:45;;;;;;;505.67;472.15;;;1.20;99.90;;;;;;6272180;22;20034;-83
2023/12/04 10:00:13;;;;;;;526.97;490.58;;;2.10;99.90;;;;;;6272636;22;20264;-82
2023/12/04 10:02:40;;;;;;;485.35;453.33;;;1.30;99.90;;;;;;6298877;22;20459;-82
2023/12/04 10:05:07;;;;;;;481.80;449.95;;;1.30;99.90;;;;;;6299749;22;20073;-81
2023/12/04 10:07:33;;;;;;;488.58;455.92;;;1.30;99.90;;;;;;6300717;22;20128;-82
2023/12/04 10:09:59;;;;;;;495.55;462.48;;;2.00;99.90;;;;;;6301852;22;20020;-81
2023/12/04 10:12:25;;;;;;;488.50;456.05;;;1.40;99.90;;;;;;6301549;22;20456;-81
2023/12/04 10:15:07;;;;;;;459.00;428.90;;;1.40;99.90;;;;;;6299943;22;20084;-81
2023/12/04 10:17:35;;;;;;;458.95;428.90;;;1.50;99.90;;;;;;6300079;22;20382;-81
2023/12/04 10:20:17;;;;;;;455.77;426.33;;;1.80;99.90;;;;;;6302764;22;20011;-81
2023/12/04 10:23:01;;;;;;;451.40;421.85;;;1.60;99.90;;;;;;6274929;22;20023;-83
2023/12/04 10:25:29;;;;;;;447.13;417.67;;;1.60;99.90;;;;;;6300737;22;20047;-85
2023/12/04 10:28:07;;;;;;;410.10;383.50;;;1.70;99.90;;;;;;6298972;22;20015;-83
2023/12/04 10:30:33;;;;;;;409.58;383.42;;;1.80;99.90;;;;;;6300373;22;20023;-83
2023/12/04 10:33:02;;;;;;;407.45;381.20;;;2.00;99.90;;;;;;6300094;22;20015;-83
2023/12/04 10:35:31;;;;;;;363.95;341.45;;;1.80;99.90;;;;;;6299406;22;20073;-83
2023/12/04 10:37:57;;;;;;;380.02;355.95;;;2.30;99.90;;;;;;6299754;22;20007;-83
2023/12/04 10:40:24;;;;;;;309.08;290.33;;;2.20;99.90;;;;;;6275073;22;20059;-84
2023/12/04 10:42:50;;;;;;;270.70;254.45;;;1.80;99.90;;;;;;6298047;22;20019;-83
2023/12/04 10:45:16;;;;;;;128.70;120.25;;;1.80;99.90;;;;;;6302013;22;20149;-83
2023/12/04 10:47:44;;;;;;;106.55;99.32;;;2.40;99.90;;;;;;6300343;22;20557;-84
2023/12/04 10:50:12;;;;;;;122.78;114.65;;;1.70;99.90;;;;;;6300753;22;20031;-82
2023/12/04 10:52:40;;;;;;;84.97;79.07;;;1.70;99.90;;;;;;6300539;22;20016;-82
2023/12/04 10:55:08;;;;;;;89.55;83.60;;;1.70;99.90;;;;;;6314213;22;20018;-82
2023/12/04 10:57:40;;;;;;;94.32;87.93;;;1.70;99.90;;;;;;6304295;22;20015;-84
2023/12/04 11:00:08;;;;;;;113.28;106.00;;;2.00;99.90;;;;;;6334769;22;20014;-83
2023/12/04 11:02:35;;;;;;;114.28;106.05;;;1.60;99.90;;;;;;6278461;22;20022;-83
2023/12/04 11:05:13;;;;;;;95.10;87.88;;;1.60;99.90;;;;;;6306483;22;20015;-83
2023/12/04 11:07:41;;;;;;;175.20;163.73;;;1.60;99.90;;;;;;6332787;22;20018;-83
2023/12/04 11:10:10;;;;;;;215.40;202.30;;;2.40;99.90;;;;;;6333534;22;20245;-83
2023/12/04 11:12:39;;;;;;;102.78;96.05;;;1.70;99.90;;;;;;6304712;22;20014;-83
2023/12/04 11:15:07;;;;;;;106.07;99.18;;;2.20;99.90;;;;;;6306524;22;20015;-82
2023/12/04 11:17:37;;;;;;;183.75;172.73;;;1.80;99.90;;;;;;6304587;22;20026;-83
2023/12/04 11:20:10;;;;;;;94.40;88.05;;;2.20;99.90;;;;;;6306589;22;20094;-83
2023/12/04 11:22:39;;;;;;;80.35;74.90;;;1.90;99.90;;;;;;6305992;22;20042;-82
2023/12/04 11:25:07;;;;;;;80.90;75.65;;;1.90;99.90;;;;;;6279515;22;20098;-82
2023/12/04 11:27:34;;;;;;;74.18;68.95;;;2.00;99.90;;;;;;6305037;22;20011;-82
2023/12/04 11:30:02;;;;;;;76.72;71.53;;;2.10;99.90;;;;;;6334837;22;20092;-83
2023/12/04 11:32:29;;;;;;;93.75;87.28;;;2.60;99.90;;;;;;6305135;22;20116;-83
2023/12/04 11:34:57;;;;;;;68.00;63.50;;;3.00;99.90;;;;;;6280673;22;20023;-83
2023/12/04 11:37:23;;;;;;;71.25;66.55;;;2.20;99.90;;;;;;6305656;22;20347;-84
2023/12/04 11:39:51;;;;;;;78.78;73.43;;;2.30;99.90;;;;;;6279730;22;20021;-84
2023/12/04 11:42:23;;;;;;;73.18;68.03;;;2.30;99.90;;;;;;6279366;22;20681;-84
2023/12/04 11:44:49;;;;;;;64.78;60.15;;;2.30;99.90;;;;;;6304909;22;20347;-84
2023/12/04 11:47:15;;;;;;;67.32;62.63;;;2.50;99.90;;;;;;6305625;22;20098;-84
2023/12/04 11:49:41;;;;;;;56.47;52.42;;;2.30;99.90;;;;;;6305757;22;20050;-84
2023/12/04 11:52:09;;;;;;;74.75;69.55;;;2.30;99.90;;;;;;6304689;22;20018;-84
2023/12/04 11:55:03;;;;;;;62.05;57.75;;;2.70;99.90;;;;;;6305585;22;20014;-83
2023/12/04 11:57:32;;;;;;;;;;;2.60;99.90;;;;;;6305961;22;20014;-83
2023/12/04 12:00:21;;;;;;;65.95;61.10;;;2.30;99.90;;;;;;6305496;22;19914;-83
2023/12/04 12:03:02;;;;;;;89.95;83.97;;;2.30;99.90;;;;;;6305530;22;20094;-82
2023/12/04 12:05:28;;;;;;;71.38;66.20;;;2.30;99.90;;;;;;6306079;22;20060;-83
2023/12/04 12:07:55;;;;;;;64.55;59.83;;;2.60;99.90;;;;;;6304528;22;20015;-83
2023/12/04 12:10:21;;;;;;;64.13;59.63;;;2.20;99.90;;;;;;6306136;22;20034;-83
2023/12/04 12:12:47;;;;;;;67.90;63.22;;;2.20;99.90;;;;;;6303710;22;20393;-83